sensor_id;sensor_type;location;lat;lon;timestamp;pressure;altitude;pressure_sealevel;temperature;humidity
71772;BME280;59606;52.138;5.424;2023-09-08T00:02:27;101773.16;;;19.85;82.06
71772;BME280;59606;52.138;5.424;2023-09-08T00:04:54;101772.56;;;19.81;82.17
71772;BME280;59606;52.138;5.424;2023-09-08T00:07:21;101778.09;;;19.78;82.21
71772;BME280;59606;52.138;5.424;2023-09-08T00:09:48;101772.94;;;19.76;82.67
71772;BME280;59606;52.138;5.424;2023-09-08T00:12:14;101771.50;;;19.72;83.16
71772;BME280;59606;52.138;5.424;2023-09-08T00:14:41;101770.91;;;19.69;82.85
71772;BME280;59606;52.138;5.424;2023-09-08T00:17:08;101776.31;;;19.67;82.54
71772;BME280;59606;52.138;5.424;2023-09-08T00:19:35;101770.31;;;19.65;82.96
71772;BME280;59606;52.138;5.424;2023-09-08T00:22:03;101767.97;;;19.61;83.34
71772;BME280;59606;52.138;5.424;2023-09-08T00:24:33;101771.81;;;19.57;83.71
71772;BME280;59606;52.138;5.424;2023-09-08T00:26:59;101771.34;;;19.51;83.64
71772;BME280;59606;52.138;5.424;2023-09-08T00:29:26;101769.78;;;19.49;83.63
71772;BME280;59606;52.138;5.424;2023-09-08T00:31:53;101778.78;;;19.46;83.47
71772;BME280;59606;52.138;5.424;2023-09-08T00:34:19;101780.69;;;19.44;83.50
71772;BME280;59606;52.138;5.424;2023-09-08T00:36:46;101784.31;;;19.43;83.71
71772;BME280;59606;52.138;5.424;2023-09-08T00:39:12;101781.06;;;19.40;83.67
71772;BME280;59606;52.138;5.424;2023-09-08T00:41:39;101777.91;;;19.35;84.06
71772;BME280;59606;52.138;5.424;2023-09-08T00:44:05;101775.41;;;19.33;83.90
71772;BME280;59606;52.138;5.424;2023-09-08T00:46:33;101780.94;;;19.30;84.33
71772;BME280;59606;52.138;5.424;2023-09-08T00:49:00;101787.50;;;19.24;85.08
71772;BME280;59606;52.138;5.424;2023-09-08T00:51:27;101779.81;;;19.21;85.44
71772;BME280;59606;52.138;5.424;2023-09-08T00:53:53;101782.72;;;19.18;85.69
71772;BME280;59606;52.138;5.424;2023-09-08T00:56:20;101785.47;;;19.17;85.59
71772;BME280;59606;52.138;5.424;2023-09-08T00:58:47;101778.59;;;19.14;85.75
71772;BME280;59606;52.138;5.424;2023-09-08T01:01:13;101780.66;;;19.11;86.14
71772;BME280;59606;52.138;5.424;2023-09-08T01:03:40;101782.69;;;19.07;85.98
71772;BME280;59606;52.138;5.424;2023-09-08T01:06:07;101772.34;;;19.04;85.98
71772;BME280;59606;52.138;5.424;2023-09-08T01:08:34;101773.19;;;19.04;85.69
71772;BME280;59606;52.138;5.424;2023-09-08T01:11:02;101771.63;;;19.02;85.18
71772;BME280;59606;52.138;5.424;2023-09-08T01:13:28;101773.66;;;18.98;85.33
71772;BME280;59606;52.138;5.424;2023-09-08T01:15:54;101770.41;;;18.95;85.75
71772;BME280;59606;52.138;5.424;2023-09-08T01:18:21;101774.13;;;18.92;86.11
71772;BME280;59606;52.138;5.424;2023-09-08T01:21:52;101770.88;;;18.89;85.54
71772;BME280;59606;52.138;5.424;2023-09-08T01:26:47;101773.22;;;18.80;86.32
71772;BME280;59606;52.138;5.424;2023-09-08T01:29:16;101778.75;;;18.77;86.44
71772;BME280;59606;52.138;5.424;2023-09-08T01:31:43;101771.91;;;18.75;86.44
71772;BME280;59606;52.138;5.424;2023-09-08T01:34:11;101780.91;;;18.72;86.16
71772;BME280;59606;52.138;5.424;2023-09-08T01:36:38;101776.66;;;18.70;86.66
71772;BME280;59606;52.138;5.424;2023-09-08T01:39:05;101776.88;;;18.67;86.13
71772;BME280;59606;52.138;5.424;2023-09-08T01:41:31;101778.66;;;18.66;86.39
71772;BME280;59606;52.138;5.424;2023-09-08T01:43:59;101779.72;;;18.64;87.00
71772;BME280;59606;52.138;5.424;2023-09-08T01:46:26;101777.22;;;18.62;87.13
71772;BME280;59606;52.138;5.424;2023-09-08T01:48:52;101776.59;;;18.58;87.06
71772;BME280;59606;52.138;5.424;2023-09-08T01:51:19;101772.38;;;18.56;87.13
71772;BME280;59606;52.138;5.424;2023-09-08T01:53:45;101773.44;;;18.53;87.16
71772;BME280;59606;52.138;5.424;2023-09-08T01:56:12;101770.19;;;18.50;86.51
71772;BME280;59606;52.138;5.424;2023-09-08T01:58:38;101771.25;;;18.47;87.24
71772;BME280;59606;52.138;5.424;2023-09-08T02:01:05;101768.13;;;18.42;87.14
71772;BME280;59606;52.138;5.424;2023-09-08T02:03:32;101770.16;;;18.38;86.45
71772;BME280;59606;52.138;5.424;2023-09-08T02:05:59;101772.03;;;18.36;86.42
71772;BME280;59606;52.138;5.424;2023-09-08T02:08:26;101774.81;;;18.35;86.76
71772;BME280;59606;52.138;5.424;2023-09-08T02:10:53;101779.34;;;18.33;87.37
71772;BME280;59606;52.138;5.424;2023-09-08T02:13:19;101774.41;;;18.28;87.41
71772;BME280;59606;52.138;5.424;2023-09-08T02:15:46;101780.97;;;18.23;87.17
71772;BME280;59606;52.138;5.424;2023-09-08T02:18:12;101773.16;;;18.21;86.79
71772;BME280;59606;52.138;5.424;2023-09-08T02:20:39;101774.94;;;18.21;87.27
71772;BME280;59606;52.138;5.424;2023-09-08T02:23:07;101769.78;;;18.19;86.99
71772;BME280;59606;52.138;5.424;2023-09-08T02:25:34;101772.56;;;18.18;87.77
71772;BME280;59606;52.138;5.424;2023-09-08T02:28:00;101770.13;;;18.14;87.50
71772;BME280;59606;52.138;5.424;2023-09-08T02:30:27;101772.16;;;18.11;87.12
71772;BME280;59606;52.138;5.424;2023-09-08T02:32:53;101762.66;;;18.08;86.84
71772;BME280;59606;52.138;5.424;2023-09-08T02:35:25;101765.50;;;18.05;86.68
71772;BME280;59606;52.138;5.424;2023-09-08T02:37:52;101770.03;;;18.03;86.92
71772;BME280;59606;52.138;5.424;2023-09-08T02:40:18;101769.19;;;18.03;87.17
71772;BME280;59606;52.138;5.424;2023-09-08T02:42:46;101764.97;;;18.00;87.33
71772;BME280;59606;52.138;5.424;2023-09-08T02:45:14;101766.06;;;17.98;87.76
71772;BME280;59606;52.138;5.424;2023-09-08T02:47:41;101760.06;;;17.96;87.71
71772;BME280;59606;52.138;5.424;2023-09-08T02:50:08;101764.56;;;17.94;88.01
71772;BME280;59606;52.138;5.424;2023-09-08T02:52:34;101769.97;;;17.92;88.21
71772;BME280;59606;52.138;5.424;2023-09-08T02:55:01;101764.91;;;17.89;88.09
71772;BME280;59606;52.138;5.424;2023-09-08T02:57:27;101763.25;;;17.88;87.71
71772;BME280;59606;52.138;5.424;2023-09-08T02:59:54;101773.88;;;17.86;87.69
71772;BME280;59606;52.138;5.424;2023-09-08T03:02:24;101769.66;;;17.84;87.57
71772;BME280;59606;52.138;5.424;2023-09-08T03:04:52;101769.03;;;17.80;87.99
71772;BME280;59606;52.138;5.424;2023-09-08T03:07:19;101768.31;;;17.78;87.97
71772;BME280;59606;52.138;5.424;2023-09-08T03:09:45;101769.34;;;17.76;87.90
71772;BME280;59606;52.138;5.424;2023-09-08T03:12:12;101766.91;;;17.73;87.60
71772;BME280;59606;52.138;5.424;2023-09-08T03:14:38;101771.47;;;17.71;87.68
71772;BME280;59606;52.138;5.424;2023-09-08T03:17:04;101769.66;;;17.71;88.05
71772;BME280;59606;52.138;5.424;2023-09-08T03:19:31;101768.19;;;17.67;87.66
71772;BME280;59606;52.138;5.424;2023-09-08T03:21:58;101769.25;;;17.64;88.46
71772;BME280;59606;52.138;5.424;2023-09-08T03:24:24;101758.81;;;17.63;88.47
71772;BME280;59606;52.138;5.424;2023-09-08T03:26:51;101758.09;;;17.61;88.69
71772;BME280;59606;52.138;5.424;2023-09-08T03:29:17;101758.19;;;17.59;88.87
71772;BME280;59606;52.138;5.424;2023-09-08T03:31:45;101758.38;;;17.56;89.32
71772;BME280;59606;52.138;5.424;2023-09-08T03:34:12;101762.06;;;17.54;89.68
71772;BME280;59606;52.138;5.424;2023-09-08T03:36:41;101752.28;;;17.56;89.25
71772;BME280;59606;52.138;5.424;2023-09-08T03:39:08;101747.00;;;17.56;89.31
71772;BME280;59606;52.138;5.424;2023-09-08T03:41:35;101752.19;;;17.57;89.71
71772;BME280;59606;52.138;5.424;2023-09-08T03:44:02;101753.13;;;17.56;89.71
71772;BME280;59606;52.138;5.424;2023-09-08T03:46:28;101753.97;;;17.57;89.71
71772;BME280;59606;52.138;5.424;2023-09-08T03:48:55;101747.22;;;17.53;90.14
71772;BME280;59606;52.138;5.424;2023-09-08T03:51:27;101746.38;;;17.52;89.55
71772;BME280;59606;52.138;5.424;2023-09-08T03:53:54;101743.00;;;17.50;89.53
71772;BME280;59606;52.138;5.424;2023-09-08T03:56:21;101745.75;;;17.49;89.42
71772;BME280;59606;52.138;5.424;2023-09-08T03:58:48;101745.00;;;17.47;89.52
71772;BME280;59606;52.138;5.424;2023-09-08T04:01:15;101743.25;;;17.47;89.54
71772;BME280;59606;52.138;5.424;2023-09-08T04:03:41;101736.28;;;17.46;89.45
71772;BME280;59606;52.138;5.424;2023-09-08T04:06:08;101735.63;;;17.42;90.12
71772;BME280;59606;52.138;5.424;2023-09-08T04:08:35;101742.69;;;17.42;90.22
71772;BME280;59606;52.138;5.424;2023-09-08T04:11:02;101740.19;;;17.40;89.98
71772;BME280;59606;52.138;5.424;2023-09-08T04:13:28;101735.13;;;17.37;90.03
71772;BME280;59606;52.138;5.424;2023-09-08T04:15:55;101737.03;;;17.35;90.60
71772;BME280;59606;52.138;5.424;2023-09-08T04:18:21;101734.50;;;17.34;90.06
71772;BME280;59606;52.138;5.424;2023-09-08T04:20:48;101736.38;;;17.32;90.03
71772;BME280;59606;52.138;5.424;2023-09-08T04:23:15;101737.34;;;17.31;89.94
71772;BME280;59606;52.138;5.424;2023-09-08T04:25:41;101736.59;;;17.29;90.14
71772;BME280;59606;52.138;5.424;2023-09-08T04:28:08;101739.34;;;17.27;90.10
71772;BME280;59606;52.138;5.424;2023-09-08T04:30:35;101741.13;;;17.27;90.32
71772;BME280;59606;52.138;5.424;2023-09-08T04:33:01;101736.94;;;17.24;90.05
71772;BME280;59606;52.138;5.424;2023-09-08T04:35:28;101738.06;;;17.20;90.04
71772;BME280;59606;52.138;5.424;2023-09-08T04:37:55;101744.28;;;17.19;90.30
71772;BME280;59606;52.138;5.424;2023-09-08T04:40:22;101743.66;;;17.15;90.42
71772;BME280;59606;52.138;5.424;2023-09-08T04:42:48;101737.63;;;17.13;90.73
71772;BME280;59606;52.138;5.424;2023-09-08T04:45:15;101737.97;;;17.09;90.92
71772;BME280;59606;52.138;5.424;2023-09-08T04:47:41;101740.72;;;17.07;91.28
71772;BME280;59606;52.138;5.424;2023-09-08T04:50:08;101750.50;;;17.05;91.21
71772;BME280;59606;52.138;5.424;2023-09-08T04:52:35;101746.19;;;17.04;91.41
71772;BME280;59606;52.138;5.424;2023-09-08T04:55:02;101749.72;;;17.03;91.29
71772;BME280;59606;52.138;5.424;2023-09-08T04:57:28;101739.31;;;17.02;91.65
71772;BME280;59606;52.138;5.424;2023-09-08T04:59:56;101741.19;;;17.00;91.83
71772;BME280;59606;52.138;5.424;2023-09-08T05:02:23;101743.84;;;17.00;91.98
71772;BME280;59606;52.138;5.424;2023-09-08T05:04:51;101740.47;;;16.98;92.21
71772;BME280;59606;52.138;5.424;2023-09-08T05:07:19;101741.31;;;16.98;92.34
71772;BME280;59606;52.138;5.424;2023-09-08T05:09:46;101742.16;;;16.99;91.96
71772;BME280;59606;52.138;5.424;2023-09-08T05:12:13;101742.28;;;16.97;92.07
71772;BME280;59606;52.138;5.424;2023-09-08T05:14:40;101744.78;;;16.99;92.39
71772;BME280;59606;52.138;5.424;2023-09-08T05:17:07;101741.19;;;17.00;92.47
71772;BME280;59606;52.138;5.424;2023-09-08T05:19:34;101743.63;;;17.03;92.64
71772;BME280;59606;52.138;5.424;2023-09-08T05:22:00;101740.91;;;17.04;92.69
71772;BME280;59606;52.138;5.424;2023-09-08T05:24:27;101741.63;;;17.06;93.60
71772;BME280;59606;52.138;5.424;2023-09-08T05:26:54;101743.13;;;17.10;94.05
71772;BME280;59606;52.138;5.424;2023-09-08T05:29:20;101742.19;;;17.11;94.14
71772;BME280;59606;52.138;5.424;2023-09-08T05:31:47;101747.31;;;17.13;94.15
71772;BME280;59606;52.138;5.424;2023-09-08T05:34:13;101749.03;;;17.14;94.34
71772;BME280;59606;52.138;5.424;2023-09-08T05:36:40;101745.44;;;17.15;94.73
71772;BME280;59606;52.138;5.424;2023-09-08T05:39:09;101753.22;;;17.16;94.65
71772;BME280;59606;52.138;5.424;2023-09-08T05:41:36;101760.19;;;17.17;94.71
71772;BME280;59606;52.138;5.424;2023-09-08T05:44:03;101758.19;;;17.21;94.84
71772;BME280;59606;52.138;5.424;2023-09-08T05:46:30;101754.53;;;17.24;95.07
71772;BME280;59606;52.138;5.424;2023-09-08T05:48:56;101759.56;;;17.27;95.31
71772;BME280;59606;52.138;5.424;2023-09-08T05:51:23;101751.44;;;17.30;95.15
71772;BME280;59606;52.138;5.424;2023-09-08T05:53:49;101754.69;;;17.33;95.44
71772;BME280;59606;52.138;5.424;2023-09-08T05:56:18;101755.34;;;17.37;95.91
71772;BME280;59606;52.138;5.424;2023-09-08T05:58:45;101758.50;;;17.42;96.25
71772;BME280;59606;52.138;5.424;2023-09-08T06:01:12;101772.22;;;17.47;96.41
71772;BME280;59606;52.138;5.424;2023-09-08T06:03:39;101766.41;;;17.55;96.52
71772;BME280;59606;52.138;5.424;2023-09-08T06:06:06;101769.47;;;17.61;96.56
71772;BME280;59606;52.138;5.424;2023-09-08T06:08:32;101770.72;;;17.68;96.48
71772;BME280;59606;52.138;5.424;2023-09-08T06:10:59;101769.47;;;17.74;96.20
71772;BME280;59606;52.138;5.424;2023-09-08T06:13:26;101773.38;;;17.81;96.69
71772;BME280;59606;52.138;5.424;2023-09-08T06:15:53;101770.31;;;17.87;96.39
71772;BME280;59606;52.138;5.424;2023-09-08T06:18:19;101776.84;;;17.95;96.02
71772;BME280;59606;52.138;5.424;2023-09-08T06:20:46;101776.28;;;18.02;96.21
71772;BME280;59606;52.138;5.424;2023-09-08T06:23:14;101773.22;;;18.08;96.05
71772;BME280;59606;52.138;5.424;2023-09-08T06:25:41;101774.44;;;18.16;96.24
71772;BME280;59606;52.138;5.424;2023-09-08T06:28:07;101772.22;;;18.22;95.88
71772;BME280;59606;52.138;5.424;2023-09-08T06:30:34;101773.44;;;18.29;95.44
71772;BME280;59606;52.138;5.424;2023-09-08T06:33:00;101765.94;;;18.36;95.23
71772;BME280;59606;52.138;5.424;2023-09-08T06:35:27;101772.34;;;18.45;94.81
71772;BME280;59606;52.138;5.424;2023-09-08T06:37:54;101781.50;;;18.52;95.17
71772;BME280;59606;52.138;5.424;2023-09-08T06:40:21;101776.47;;;18.60;94.80
71772;BME280;59606;52.138;5.424;2023-09-08T06:42:47;101778.66;;;18.66;94.27
71772;BME280;59606;52.138;5.424;2023-09-08T06:45:14;101777.28;;;18.73;93.98
71772;BME280;59606;52.138;5.424;2023-09-08T06:47:41;101781.75;;;18.84;94.44
71772;BME280;59606;52.138;5.424;2023-09-08T06:50:08;101778.56;;;18.92;93.74
71772;BME280;59606;52.138;5.424;2023-09-08T06:52:35;101780.50;;;19.01;94.18
71772;BME280;59606;52.138;5.424;2023-09-08T06:55:02;101786.75;;;19.11;94.50
71772;BME280;59606;52.138;5.424;2023-09-08T06:57:29;101776.47;;;19.19;93.64
71772;BME280;59606;52.138;5.424;2023-09-08T06:59:55;101781.41;;;19.24;92.90
71772;BME280;59606;52.138;5.424;2023-09-08T07:02:22;101792.47;;;19.29;93.61
71772;BME280;59606;52.138;5.424;2023-09-08T07:04:48;101788.38;;;19.36;92.89
71772;BME280;59606;52.138;5.424;2023-09-08T07:07:16;101783.09;;;19.47;93.53
71772;BME280;59606;52.138;5.424;2023-09-08T07:09:44;101782.53;;;19.55;92.41
71772;BME280;59606;52.138;5.424;2023-09-08T07:12:10;101787.22;;;19.63;91.43
71772;BME280;59606;52.138;5.424;2023-09-08T07:14:37;101790.50;;;19.66;91.05
71772;BME280;59606;52.138;5.424;2023-09-08T07:17:04;101790.63;;;19.76;91.33
71772;BME280;59606;52.138;5.424;2023-09-08T07:19:31;101795.88;;;19.87;91.61
71772;BME280;59606;52.138;5.424;2023-09-08T07:21:57;101785.19;;;20.00;91.52
71772;BME280;59606;52.138;5.424;2023-09-08T07:24:24;101787.31;;;20.17;91.36
71772;BME280;59606;52.138;5.424;2023-09-08T07:26:50;101788.25;;;20.28;90.51
71772;BME280;59606;52.138;5.424;2023-09-08T07:29:17;101781.63;;;20.33;88.87
71772;BME280;59606;52.138;5.424;2023-09-08T07:31:44;101788.25;;;20.39;88.27
71772;BME280;59606;52.138;5.424;2023-09-08T07:34:10;101788.69;;;20.44;88.33
71772;BME280;59606;52.138;5.424;2023-09-08T07:36:37;101794.59;;;20.47;89.02
71772;BME280;59606;52.138;5.424;2023-09-08T07:39:03;101793.13;;;20.66;87.84
71772;BME280;59606;52.138;5.424;2023-09-08T07:41:30;101795.13;;;20.74;86.17
71772;BME280;59606;52.138;5.424;2023-09-08T07:43:57;101792.66;;;20.82;87.91
71772;BME280;59606;52.138;5.424;2023-09-08T07:46:23;101789.44;;;20.99;86.76
71772;BME280;59606;52.138;5.424;2023-09-08T07:48:50;101790.75;;;21.05;85.92
71772;BME280;59606;52.138;5.424;2023-09-08T07:51:17;101784.78;;;21.12;86.29
71772;BME280;59606;52.138;5.424;2023-09-08T07:53:44;101795.47;;;21.22;86.76
71772;BME280;59606;52.138;5.424;2023-09-08T07:56:10;101793.00;;;21.30;85.60
71772;BME280;59606;52.138;5.424;2023-09-08T07:58:37;101793.22;;;21.38;85.00
71772;BME280;59606;52.138;5.424;2023-09-08T08:01:05;101789.53;;;21.51;84.42
71772;BME280;59606;52.138;5.424;2023-09-08T08:03:32;101791.25;;;21.61;84.89
71772;BME280;59606;52.138;5.424;2023-09-08T08:06:01;101782.50;;;21.71;84.66
71772;BME280;59606;52.138;5.424;2023-09-08T08:08:28;101790.34;;;21.82;84.09
71772;BME280;59606;52.138;5.424;2023-09-08T08:10:54;101785.03;;;21.82;82.57
71772;BME280;59606;52.138;5.424;2023-09-08T08:13:21;101795.66;;;21.82;84.26
71772;BME280;59606;52.138;5.424;2023-09-08T08:15:48;101788.84;;;21.89;82.98
71772;BME280;59606;52.138;5.424;2023-09-08T08:18:16;101783.81;;;21.96;83.09
71772;BME280;59606;52.138;5.424;2023-09-08T08:20:43;101790.88;;;22.16;84.19
71772;BME280;59606;52.138;5.424;2023-09-08T08:23:09;101793.28;;;22.29;84.31
71772;BME280;59606;52.138;5.424;2023-09-08T08:25:36;101786.59;;;22.34;84.13
71772;BME280;59606;52.138;5.424;2023-09-08T08:28:03;101782.56;;;22.40;82.88
71772;BME280;59606;52.138;5.424;2023-09-08T08:30:29;101783.41;;;22.50;83.67
71772;BME280;59606;52.138;5.424;2023-09-08T08:32:57;101775.44;;;22.60;82.50
71772;BME280;59606;52.138;5.424;2023-09-08T08:35:23;101777.97;;;22.71;81.23
71772;BME280;59606;52.138;5.424;2023-09-08T08:37:50;101779.06;;;22.78;83.05
71772;BME280;59606;52.138;5.424;2023-09-08T08:40:17;101775.41;;;22.89;81.42
71772;BME280;59606;52.138;5.424;2023-09-08T08:42:43;101772.94;;;22.97;81.25
71772;BME280;59606;52.138;5.424;2023-09-08T08:45:10;101772.06;;;23.06;80.60
71772;BME280;59606;52.138;5.424;2023-09-08T08:47:39;101776.13;;;23.11;82.20
71772;BME280;59606;52.138;5.424;2023-09-08T08:50:07;101770.66;;;23.22;81.53
71772;BME280;59606;52.138;5.424;2023-09-08T08:52:37;101767.81;;;23.33;79.78
71772;BME280;59606;52.138;5.424;2023-09-08T08:55:04;101771.84;;;23.37;77.80
71772;BME280;59606;52.138;5.424;2023-09-08T08:57:32;101779.53;;;23.40;77.52
71772;BME280;59606;52.138;5.424;2023-09-08T08:59:59;101777.28;;;23.45;78.49
71772;BME280;59606;52.138;5.424;2023-09-08T09:02:28;101781.19;;;23.51;77.52
71772;BME280;59606;52.138;5.424;2023-09-08T09:04:55;101776.97;;;23.58;77.77
71772;BME280;59606;52.138;5.424;2023-09-08T09:07:22;101774.13;;;23.69;78.43
71772;BME280;59606;52.138;5.424;2023-09-08T09:09:51;101772.56;;;23.76;77.51
71772;BME280;59606;52.138;5.424;2023-09-08T09:12:18;101775.03;;;23.88;77.51
71772;BME280;59606;52.138;5.424;2023-09-08T09:14:45;101773.00;;;23.99;77.72
71772;BME280;59606;52.138;5.424;2023-09-08T09:17:14;101774.06;;;24.07;77.94
71772;BME280;59606;52.138;5.424;2023-09-08T09:19:41;101782.84;;;24.17;77.11
71772;BME280;59606;52.138;5.424;2023-09-08T09:22:08;101779.44;;;24.25;78.18
71772;BME280;59606;52.138;5.424;2023-09-08T09:24:39;101782.56;;;24.38;78.05
71772;BME280;59606;52.138;5.424;2023-09-08T09:27:08;101778.34;;;24.45;75.45
71772;BME280;59606;52.138;5.424;2023-09-08T09:29:49;101775.06;;;24.51;74.28
71772;BME280;59606;52.138;5.424;2023-09-08T09:32:16;101773.00;;;24.63;73.66
71772;BME280;59606;52.138;5.424;2023-09-08T09:34:51;101770.69;;;24.68;72.74
71772;BME280;59606;52.138;5.424;2023-09-08T09:37:20;101776.72;;;24.70;73.20
71772;BME280;59606;52.138;5.424;2023-09-08T09:39:54;101779.78;;;24.75;72.68
71772;BME280;59606;52.138;5.424;2023-09-08T09:42:21;101779.00;;;24.83;73.13
71772;BME280;59606;52.138;5.424;2023-09-08T09:44:48;101766.91;;;24.88;73.37
71772;BME280;59606;52.138;5.424;2023-09-08T09:47:16;101771.13;;;24.99;73.45
71772;BME280;59606;52.138;5.424;2023-09-08T09:49:44;101765.69;;;25.09;73.66
71772;BME280;59606;52.138;5.424;2023-09-08T09:52:12;101773.94;;;25.15;72.13
71772;BME280;59606;52.138;5.424;2023-09-08T09:54:42;101767.97;;;25.22;73.11
71772;BME280;59606;52.138;5.424;2023-09-08T09:57:13;101763.38;;;25.32;71.71
71772;BME280;59606;52.138;5.424;2023-09-08T09:59:41;101770.72;;;25.38;72.07
71772;BME280;59606;52.138;5.424;2023-09-08T10:02:18;101776.13;;;25.46;72.00
71772;BME280;59606;52.138;5.424;2023-09-08T10:04:49;101766.31;;;25.55;71.25
71772;BME280;59606;52.138;5.424;2023-09-08T10:07:16;101766.00;;;25.58;71.19
71772;BME280;59606;52.138;5.424;2023-09-08T10:09:44;101762.53;;;25.66;71.94
71772;BME280;59606;52.138;5.424;2023-09-08T10:12:13;101758.22;;;25.73;70.09
71772;BME280;59606;52.138;5.424;2023-09-08T10:14:42;101761.09;;;25.79;71.83
71772;BME280;59606;52.138;5.424;2023-09-08T10:17:15;101765.97;;;25.84;70.51
71772;BME280;59606;52.138;5.424;2023-09-08T10:19:45;101764.63;;;25.88;70.69
71772;BME280;59606;52.138;5.424;2023-09-08T10:22:20;101763.16;;;25.94;69.36
71772;BME280;59606;52.138;5.424;2023-09-08T10:24:53;101761.69;;;25.99;70.38
71772;BME280;59606;52.138;5.424;2023-09-08T10:27:21;101761.50;;;26.01;70.01
71772;BME280;59606;52.138;5.424;2023-09-08T10:29:52;101765.06;;;26.09;70.15
71772;BME280;59606;52.138;5.424;2023-09-08T10:32:21;101762.56;;;26.16;70.52
71772;BME280;59606;52.138;5.424;2023-09-08T10:34:49;101764.91;;;26.27;68.95
71772;BME280;59606;52.138;5.424;2023-09-08T10:37:23;101756.06;;;26.35;70.22
71772;BME280;59606;52.138;5.424;2023-09-08T10:39:56;101753.63;;;26.50;69.95
71772;BME280;59606;52.138;5.424;2023-09-08T10:42:24;101759.63;;;26.60;68.95
71772;BME280;59606;52.138;5.424;2023-09-08T10:44:57;101756.28;;;26.66;68.25
71772;BME280;59606;52.138;5.424;2023-09-08T10:47:41;101756.47;;;26.73;67.45
71772;BME280;59606;52.138;5.424;2023-09-08T10:50:27;101758.63;;;26.77;67.39
71772;BME280;59606;52.138;5.424;2023-09-08T10:55:47;101748.41;;;26.89;67.63
71772;BME280;59606;52.138;5.424;2023-09-08T10:58:34;101749.56;;;26.95;66.56
71772;BME280;59606;52.138;5.424;2023-09-08T11:01:03;101750.41;;;27.03;66.98
71772;BME280;59606;52.138;5.424;2023-09-08T11:06:05;101748.22;;;27.15;65.83
71772;BME280;59606;52.138;5.424;2023-09-08T11:08:33;101747.88;;;27.18;66.88
71772;BME280;59606;52.138;5.424;2023-09-08T11:11:01;101756.72;;;27.27;66.90
71772;BME280;59606;52.138;5.424;2023-09-08T11:13:28;101745.84;;;27.37;65.94
71772;BME280;59606;52.138;5.424;2023-09-08T11:15:55;101746.97;;;27.42;66.21
71772;BME280;59606;52.138;5.424;2023-09-08T11:18:32;101746.13;;;27.50;66.33
71772;BME280;59606;52.138;5.424;2023-09-08T11:21:02;101743.59;;;27.57;65.79
71772;BME280;59606;52.138;5.424;2023-09-08T11:23:30;101744.72;;;27.62;66.34
71772;BME280;59606;52.138;5.424;2023-09-08T11:25:59;101745.53;;;27.71;66.66
71772;BME280;59606;52.138;5.424;2023-09-08T11:28:27;101745.34;;;27.72;64.63
71772;BME280;59606;52.138;5.424;2023-09-08T11:30:55;101746.69;;;27.68;63.83
71772;BME280;59606;52.138;5.424;2023-09-08T11:33:23;101747.84;;;27.74;66.45
71772;BME280;59606;52.138;5.424;2023-09-08T11:35:53;101752.16;;;27.83;64.84
71772;BME280;59606;52.138;5.424;2023-09-08T11:38:25;101752.69;;;27.87;64.91
71772;BME280;59606;52.138;5.424;2023-09-08T11:40:57;101751.00;;;27.86;65.23
71772;BME280;59606;52.138;5.424;2023-09-08T11:43:27;101746.56;;;28.01;66.41
71772;BME280;59606;52.138;5.424;2023-09-08T11:45:55;101753.72;;;28.09;64.56
71772;BME280;59606;52.138;5.424;2023-09-08T11:48:24;101747.28;;;28.18;64.74
71772;BME280;59606;52.138;5.424;2023-09-08T11:50:54;101753.28;;;28.20;63.69
71772;BME280;59606;52.138;5.424;2023-09-08T11:53:21;101744.53;;;28.26;63.09
71772;BME280;59606;52.138;5.424;2023-09-08T11:55:49;101740.00;;;28.27;63.53
71772;BME280;59606;52.138;5.424;2023-09-08T11:58:17;101738.78;;;28.37;64.16
71772;BME280;59606;52.138;5.424;2023-09-08T12:00:45;101746.97;;;28.44;61.08
71772;BME280;59606;52.138;5.424;2023-09-08T12:03:12;101745.41;;;28.50;61.92
71772;BME280;59606;52.138;5.424;2023-09-08T12:05:42;101741.66;;;28.59;61.96
71772;BME280;59606;52.138;5.424;2023-09-08T12:08:10;101736.59;;;28.64;61.18
71772;BME280;59606;52.138;5.424;2023-09-08T12:10:41;101743.25;;;28.68;61.67
71772;BME280;59606;52.138;5.424;2023-09-08T12:13:08;101734.06;;;28.62;61.17
71772;BME280;59606;52.138;5.424;2023-09-08T12:15:40;101732.69;;;28.66;60.18
71772;BME280;59606;52.138;5.424;2023-09-08T12:18:11;101737.31;;;28.73;61.01
71772;BME280;59606;52.138;5.424;2023-09-08T12:20:39;101744.66;;;28.79;60.22
71772;BME280;59606;52.138;5.424;2023-09-08T12:25:45;101737.47;;;28.94;60.37
71772;BME280;59606;52.138;5.424;2023-09-08T12:28:12;101739.72;;;29.05;59.87
71772;BME280;59606;52.138;5.424;2023-09-08T12:30:39;101730.28;;;29.09;59.39
71772;BME280;59606;52.138;5.424;2023-09-08T12:33:07;101733.25;;;29.15;57.67
71772;BME280;59606;52.138;5.424;2023-09-08T12:35:34;101730.94;;;29.11;57.18
71772;BME280;59606;52.138;5.424;2023-09-08T12:38:04;101728.53;;;29.17;59.69
71772;BME280;59606;52.138;5.424;2023-09-08T12:40:35;101738.34;;;29.24;58.34
71772;BME280;59606;52.138;5.424;2023-09-08T12:43:03;101727.88;;;29.29;59.34
71772;BME280;59606;52.138;5.424;2023-09-08T12:45:52;101724.63;;;29.34;59.64
71772;BME280;59606;52.138;5.424;2023-09-08T12:48:18;101721.84;;;29.42;58.46
71772;BME280;59606;52.138;5.424;2023-09-08T12:50:46;101718.59;;;29.47;59.79
71772;BME280;59606;52.138;5.424;2023-09-08T12:53:13;101725.06;;;29.52;58.96
71772;BME280;59606;52.138;5.424;2023-09-08T12:55:42;101716.75;;;29.62;58.56
71772;BME280;59606;52.138;5.424;2023-09-08T12:58:09;101714.53;;;29.66;56.28
71772;BME280;59606;52.138;5.424;2023-09-08T13:00:35;101708.78;;;29.69;58.22
71772;BME280;59606;52.138;5.424;2023-09-08T13:03:02;101715.22;;;29.74;57.58
71772;BME280;59606;52.138;5.424;2023-09-08T13:05:29;101701.88;;;29.81;57.78